Time;durP1;ratioP1;P1;durP2;ratioP2;P2;SDS_P1;SDS_P2;PMS_P1;PMS_P2;Temp;Humidity;BMP_temperature;BMP_pressure;BME280_temperature;BME280_humidity;BME280_pressure;Samples;Min_cycle;Max_cycle;Signal;HPM_P1;HPM_P2
2021/06/02 00:02:19;;;;;;;15.10;7.50;;;9.30;88.80;;;;;;5030577;28;20065;-80
2021/06/02 00:04:47;;;;;;;10.30;6.50;;;9.30;88.80;;;;;;5032073;28;20025;-80
2021/06/02 00:07:23;;;;;;;14.15;7.60;;;9.30;88.60;;;;;;5030915;28;20487;-81
2021/06/02 00:09:50;;;;;;;16.83;9.13;;;9.30;88.90;;;;;;5031083;28;20030;-81
2021/06/02 00:12:16;;;;;;;12.13;8.65;;;9.30;88.90;;;;;;5031291;28;20475;-81
2021/06/02 00:14:41;;;;;;;11.13;7.78;;;9.30;88.50;;;;;;5032293;28;20079;-81
2021/06/02 00:17:08;;;;;;;10.27;6.45;;;9.40;87.30;;;;;;5030563;28;20451;-80
2021/06/02 00:19:34;;;;;;;13.88;8.35;;;9.30;88.30;;;;;;5030898;28;20022;-81
2021/06/02 00:22:02;;;;;;;14.05;7.88;;;9.40;89.20;;;;;;5030916;28;20507;-81
2021/06/02 00:24:28;;;;;;;15.80;8.30;;;9.40;89.80;;;;;;5030522;28;20133;-80
2021/06/02 00:26:59;;;;;;;16.58;8.25;;;9.30;91.50;;;;;;5031012;28;20205;-81
2021/06/02 00:29:30;;;;;;;15.10;7.43;;;9.30;92.10;;;;;;5031045;28;20025;-81
2021/06/02 00:31:56;;;;;;;16.42;8.18;;;9.40;92.00;;;;;;5030748;28;20022;-80
2021/06/02 00:34:23;;;;;;;18.15;8.90;;;9.40;92.50;;;;;;5031050;28;20540;-80
2021/06/02 00:36:49;;;;;;;14.95;7.43;;;9.40;92.40;;;;;;5031895;28;20038;-81
2021/06/02 00:39:15;;;;;;;12.93;7.55;;;9.40;93.70;;;;;;5032356;28;20033;-80
2021/06/02 00:41:44;;;;;;;17.33;8.25;;;9.50;93.20;;;;;;5030881;28;20506;-81
2021/06/02 00:44:15;;;;;;;14.13;7.68;;;9.40;93.90;;;;;;5032642;28;20040;-80
2021/06/02 00:46:42;;;;;;;15.43;9.25;;;9.50;93.30;;;;;;5035753;28;20143;-80
2021/06/02 00:49:10;;;;;;;12.88;7.80;;;9.50;93.70;;;;;;5035523;28;20042;-80
2021/06/02 00:51:36;;;;;;;11.10;6.40;;;9.50;94.10;;;;;;5034311;28;20152;-81
2021/06/02 00:54:04;;;;;;;8.93;6.60;;;9.50;95.00;;;;;;5035273;28;20084;-81
2021/06/02 00:56:42;;;;;;;11.25;7.15;;;9.50;95.60;;;;;;5034430;28;20025;-81
2021/06/02 00:59:09;;;;;;;13.82;7.13;;;9.50;96.30;;;;;;5034264;28;20032;-81
2021/06/02 01:01:35;;;;;;;11.57;6.90;;;9.50;97.00;;;;;;5033505;28;20017;-81
2021/06/02 01:04:04;;;;;;;13.35;7.57;;;9.50;97.30;;;;;;5034106;28;20053;-81
2021/06/02 01:06:35;;;;;;;12.50;7.50;;;9.40;97.80;;;;;;5033928;28;20387;-81
2021/06/02 01:09:06;;;;;;;9.30;7.50;;;9.50;97.80;;;;;;5034034;28;20029;-81
2021/06/02 01:11:32;;;;;;;11.45;7.32;;;9.40;97.20;;;;;;5034028;28;20056;-81
2021/06/02 01:14:00;;;;;;;11.65;7.38;;;9.30;96.80;;;;;;5033930;28;20391;-81
2021/06/02 01:16:37;;;;;;;13.63;6.53;;;9.30;96.60;;;;;;5035083;28;20052;-81
2021/06/02 01:19:03;;;;;;;9.90;7.05;;;9.20;95.30;;;;;;5033848;28;20014;-81
2021/06/02 01:21:31;;;;;;;10.48;7.78;;;9.20;96.10;;;;;;5035178;28;20436;-81
2021/06/02 01:24:00;;;;;;;11.43;6.68;;;9.10;96.70;;;;;;5032948;28;20071;-81
2021/06/02 01:26:28;;;;;;;12.05;7.20;;;9.10;97.50;;;;;;5033716;28;20017;-81
2021/06/02 01:28:54;;;;;;;11.45;7.47;;;9.10;98.20;;;;;;5033591;28;20034;-81
2021/06/02 01:31:51;;;;;;;10.50;7.20;;;9.10;99.10;;;;;;5033190;28;20479;-80
2021/06/02 01:34:52;;;;;;;13.43;7.55;;;9.10;99.90;;;;;;5033831;28;20418;-81
2021/06/02 01:37:28;;;;;;;9.57;6.55;;;9.10;99.90;;;;;;5015086;28;20030;-81
2021/06/02 01:40:35;;;;;;;10.35;6.72;;;9.20;99.90;;;;;;5015090;28;20104;-81
2021/06/02 01:43:13;;;;;;;12.45;8.20;;;9.20;99.90;;;;;;5012899;28;20042;-80
2021/06/02 01:45:57;;;;;;;10.65;7.55;;;9.20;99.90;;;;;;5013604;28;20034;-81
2021/06/02 01:48:46;;;;;;;10.25;6.88;;;9.20;99.40;;;;;;5032029;28;20048;-81
2021/06/02 01:51:37;;;;;;;14.27;8.25;;;9.20;99.60;;;;;;5033800;28;20379;-81
2021/06/02 01:54:40;;;;;;;9.80;7.13;;;9.10;98.40;;;;;;5033124;28;20030;-81
2021/06/02 01:57:30;;;;;;;10.57;6.38;;;9.10;98.70;;;;;;5000748;28;20030;-81
2021/06/02 02:00:23;;;;;;;11.63;7.50;;;8.90;98.00;;;;;;5014718;28;20480;-81
2021/06/02 02:03:17;;;;;;;13.65;6.75;;;8.90;98.10;;;;;;5032264;28;20043;-81
2021/06/02 02:06:16;;;;;;;9.85;6.80;;;8.80;97.90;;;;;;5034114;28;20479;-81
2021/06/02 02:09:19;;;;;;;9.65;6.90;;;8.70;99.90;;;;;;5034067;28;20142;-81
2021/06/02 02:11:45;;;;;;;11.60;6.70;;;8.60;99.90;;;;;;5032051;28;20119;-80
2021/06/02 02:14:22;;;;;;;8.20;6.50;;;8.50;99.90;;;;;;5034181;28;20444;-81
2021/06/02 02:17:35;;;;;;;13.20;7.22;;;8.40;99.90;;;;;;5033674;28;20387;-80
2021/06/02 02:20:07;;;;;;;9.40;5.68;;;8.40;99.90;;;;;;5032910;28;20037;-81
2021/06/02 02:22:45;;;;;;;12.33;7.83;;;8.40;99.90;;;;;;5032728;28;20383;-81
2021/06/02 02:25:37;;;;;;;8.93;6.80;;;8.30;98.50;;;;;;5032636;28;20120;-80
2021/06/02 02:28:24;;;;;;;11.10;7.05;;;8.30;97.00;;;;;;5007840;28;20132;-80
2021/06/02 02:31:02;;;;;;;9.50;6.50;;;8.20;95.10;;;;;;5015986;28;20041;-80
2021/06/02 02:33:57;;;;;;;11.48;5.53;;;8.20;92.40;;;;;;5033597;28;20045;-81
2021/06/02 02:36:44;;;;;;;10.02;6.32;;;8.30;92.30;;;;;;5033596;28;20495;-81
2021/06/02 02:39:20;;;;;;;11.05;5.60;;;8.30;91.40;;;;;;5025314;28;20132;-80
2021/06/02 02:42:11;;;;;;;11.95;5.97;;;8.30;91.00;;;;;;5032344;28;20039;-80
2021/06/02 02:44:58;;;;;;;7.68;6.78;;;8.40;90.40;;;;;;5032162;28;20034;-80
2021/06/02 02:47:49;;;;;;;10.32;6.20;;;8.30;90.20;;;;;;5032025;28;20034;-80
2021/06/02 02:50:50;;;;;;;8.50;6.40;;;8.40;89.50;;;;;;5032207;28;20041;-80
2021/06/02 02:53:37;;;;;;;10.05;5.80;;;8.30;90.50;;;;;;5019273;28;20037;-81
2021/06/02 02:56:11;;;;;;;9.63;6.50;;;8.30;92.10;;;;;;5031910;28;20029;-80
2021/06/02 02:58:39;;;;;;;20.77;8.10;;;8.30;91.30;;;;;;5031201;28;20506;-80
2021/06/02 03:01:17;;;;;;;9.85;6.28;;;8.30;91.00;;;;;;5031845;28;20021;-80
2021/06/02 03:03:59;;;;;;;10.68;6.55;;;8.30;90.60;;;;;;5033282;28;20010;-80
2021/06/02 03:06:32;;;;;;;21.23;7.75;;;8.30;90.50;;;;;;5033011;28;20071;-80
2021/06/02 03:09:01;;;;;;;;;;;8.30;90.10;;;;;;5032037;28;20038;-80
2021/06/02 03:11:56;;;;;;;10.45;6.53;;;8.30;90.40;;;;;;5033260;28;19932;-80
2021/06/02 03:14:25;;;;;;;17.33;6.65;;;8.30;90.10;;;;;;5031773;28;20022;-80
2021/06/02 03:17:01;;;;;;;12.35;6.47;;;8.40;90.30;;;;;;5030607;28;20437;-80
2021/06/02 03:19:44;;;;;;;11.20;6.55;;;8.40;91.20;;;;;;5031761;28;20026;-81
2021/06/02 03:22:22;;;;;;;17.10;6.72;;;8.50;93.10;;;;;;5031295;28;20026;-80
2021/06/02 03:25:02;;;;;;;14.02;6.60;;;8.70;92.30;;;;;;5013309;28;20034;-81
2021/06/02 03:27:48;;;;;;;21.95;6.72;;;8.80;90.80;;;;;;5011937;28;20026;-80
2021/06/02 03:30:29;;;;;;;8.13;5.72;;;9.10;91.60;;;;;;5029400;28;20571;-81
2021/06/02 03:32:58;;;;;;;11.38;5.53;;;9.40;87.40;;;;;;5031350;28;20475;-81
2021/06/02 03:35:48;;;;;;;13.52;6.88;;;9.60;83.90;;;;;;5032571;28;20030;-81
2021/06/02 03:38:35;;;;;;;17.33;6.57;;;9.80;84.10;;;;;;5031629;28;20034;-81
2021/06/02 03:41:29;;;;;;;8.93;5.15;;;10.10;80.40;;;;;;5030911;28;20313;-81
2021/06/02 03:44:22;;;;;;;13.20;6.32;;;10.30;79.60;;;;;;5033079;28;20037;-81
2021/06/02 03:47:12;;;;;;;28.55;11.38;;;10.60;79.70;;;;;;5018215;28;20041;-81
2021/06/02 03:50:00;;;;;;;27.27;10.25;;;10.90;76.90;;;;;;5031059;28;20046;-81
2021/06/02 03:52:46;;;;;;;26.15;9.13;;;11.20;74.50;;;;;;5032568;28;20496;-81
2021/06/02 03:55:28;;;;;;;22.45;8.20;;;11.30;73.90;;;;;;5032632;28;20033;-81
2021/06/02 03:58:25;;;;;;;20.92;7.38;;;11.40;74.10;;;;;;5032498;28;20025;-81
2021/06/02 04:01:19;;;;;;;20.88;7.65;;;11.60;74.10;;;;;;5031108;28;20156;-81
2021/06/02 04:04:10;;;;;;;31.58;8.98;;;11.80;73.30;;;;;;5024479;28;20046;-81
2021/06/02 04:06:43;;;;;;;22.52;8.75;;;12.00;72.80;;;;;;5031244;28;20037;-81
2021/06/02 04:09:12;;;;;;;25.98;10.00;;;12.20;72.30;;;;;;5031212;28;20045;-81
2021/06/02 04:12:01;;;;;;;29.15;10.32;;;12.50;71.30;;;;;;5031199;28;20498;-81
2021/06/02 04:14:33;;;;;;;29.67;10.07;;;12.60;70.60;;;;;;5031273;28;20506;-81
2021/06/02 04:17:00;;;;;;;33.47;10.68;;;12.80;70.50;;;;;;5031488;28;20049;-81
2021/06/02 04:19:31;;;;;;;16.75;7.53;;;13.00;70.60;;;;;;5034405;28;20025;-81
2021/06/02 04:22:03;;;;;;;24.35;7.90;;;13.10;69.60;;;;;;5034762;28;20021;-81
2021/06/02 04:24:31;;;;;;;20.40;8.05;;;13.20;70.00;;;;;;5034851;28;20030;-81
2021/06/02 04:26:58;;;;;;;18.88;7.20;;;13.50;69.70;;;;;;5034431;28;20388;-81
2021/06/02 04:29:25;;;;;;;9.55;5.18;;;13.60;68.50;;;;;;5035463;28;20038;-81
2021/06/02 04:31:56;;;;;;;8.73;5.13;;;13.80;66.30;;;;;;5035870;28;20159;-81
2021/06/02 04:34:23;;;;;;;8.63;4.97;;;13.90;64.70;;;;;;5034826;28;20029;-81
2021/06/02 04:36:59;;;;;;;7.55;4.70;;;13.90;62.20;;;;;;5035631;28;20029;-81
2021/06/02 04:39:26;;;;;;;5.65;3.95;;;14.00;60.30;;;;;;5035948;28;20491;-81
2021/06/02 04:42:00;;;;;;;7.78;4.75;;;13.90;60.00;;;;;;5035869;28;20529;-81
2021/06/02 04:44:27;;;;;;;6.03;4.35;;;13.90;59.40;;;;;;5034620;28;20471;-82
2021/06/02 04:46:53;;;;;;;9.90;4.55;;;13.90;59.80;;;;;;5034220;28;20025;-82
2021/06/02 04:49:23;;;;;;;6.40;4.95;;;14.00;60.40;;;;;;5034316;28;20036;-82
2021/06/02 04:52:00;;;;;;;19.33;5.85;;;14.00;61.70;;;;;;5033853;28;20069;-81
2021/06/02 04:54:44;;;;;;;9.13;4.47;;;14.10;61.30;;;;;;5014613;28;20034;-81
2021/06/02 04:57:28;;;;;;;4.15;3.72;;;14.30;58.60;;;;;;5015909;28;20033;-82
2021/06/02 05:00:04;;;;;;;8.45;5.07;;;14.40;57.10;;;;;;5014421;28;20108;-82
2021/06/02 05:02:54;;;;;;;5.75;4.25;;;14.30;56.70;;;;;;5027954;28;20032;-81
2021/06/02 05:05:35;;;;;;;5.80;4.60;;;14.20;57.10;;;;;;5033838;28;20052;-81
2021/06/02 05:08:00;;;;;;;6.22;4.47;;;14.20;56.80;;;;;;5025426;28;20025;-81
2021/06/02 05:10:35;;;;;;;6.75;4.25;;;14.20;57.00;;;;;;5035344;28;20112;-81
2021/06/02 05:13:22;;;;;;;10.60;4.70;;;14.30;57.10;;;;;;5035407;28;20033;-81
2021/06/02 05:16:25;;;;;;;7.07;4.95;;;14.30;58.20;;;;;;5034003;28;20112;-81
2021/06/02 05:19:47;;;;;;;6.70;4.65;;;14.40;59.90;;;;;;5033902;28;20120;-81
2021/06/02 05:22:28;;;;;;;6.45;4.15;;;14.40;57.20;;;;;;5034047;28;20041;-81
2021/06/02 05:25:03;;;;;;;5.97;4.20;;;14.50;58.10;;;;;;5033895;28;20028;-81
2021/06/02 05:27:47;;;;;;;9.63;5.18;;;14.60;58.60;;;;;;5034776;28;20025;-81
2021/06/02 05:30:38;;;;;;;8.77;5.70;;;14.60;59.80;;;;;;5032058;28;20041;-81
2021/06/02 05:33:23;;;;;;;6.80;5.40;;;14.70;59.30;;;;;;5033536;28;20407;-81
2021/06/02 05:36:09;;;;;;;10.05;5.63;;;14.70;59.60;;;;;;5033400;28;20660;-81
2021/06/02 05:39:13;;;;;;;8.23;5.13;;;14.80;59.30;;;;;;5033585;28;20104;-81
2021/06/02 05:42:15;;;;;;;7.63;4.78;;;14.80;59.10;;;;;;5033551;28;20552;-81
2021/06/02 05:44:59;;;;;;;8.65;4.90;;;15.00;59.20;;;;;;5015850;28;20445;-81
2021/06/02 05:47:36;;;;;;;9.63;5.40;;;15.10;57.50;;;;;;5034799;28;20025;-81
2021/06/02 05:50:39;;;;;;;6.90;4.47;;;15.30;58.80;;;;;;5033236;28;20041;-81
2021/06/02 05:53:22;;;;;;;6.70;4.80;;;15.50;56.60;;;;;;5034596;28;20447;-81
2021/06/02 05:56:06;;;;;;;9.90;4.45;;;15.60;56.40;;;;;;5033203;28;20040;-81
2021/06/02 05:58:49;;;;;;;6.88;4.40;;;15.80;57.00;;;;;;5033967;28;20021;-81
2021/06/02 06:01:37;;;;;;;4.88;4.30;;;15.90;56.10;;;;;;5032586;28;20029;-81
2021/06/02 06:04:31;;;;;;;6.03;4.38;;;16.00;56.10;;;;;;5013062;28;20022;-82
2021/06/02 06:06:59;;;;;;;7.70;3.72;;;16.30;56.10;;;;;;5031192;28;20025;-82
2021/06/02 06:09:58;;;;;;;3.83;3.25;;;16.40;53.60;;;;;;5030057;28;20132;-81
2021/06/02 06:12:42;;;;;;;5.15;3.95;;;16.50;52.00;;;;;;5030961;28;20033;-81
2021/06/02 06:15:26;;;;;;;5.68;3.20;;;16.60;51.70;;;;;;5032618;28;20124;-81
2021/06/02 06:18:00;;;;;;;4.03;3.05;;;16.70;51.50;;;;;;5030240;28;20482;-82
2021/06/02 06:21:03;;;;;;;4.05;3.03;;;16.80;50.30;;;;;;5032889;28;20028;-82
2021/06/02 06:23:51;;;;;;;4.55;3.13;;;16.80;50.00;;;;;;5012820;28;20029;-81
2021/06/02 06:26:34;;;;;;;3.22;2.85;;;16.80;48.80;;;;;;5026919;28;20041;-81
2021/06/02 06:29:19;;;;;;;3.28;2.53;;;16.80;49.90;;;;;;5029269;28;20037;-82
2021/06/02 06:31:51;;;;;;;7.47;2.70;;;16.90;49.60;;;;;;5029432;28;20034;-80
2021/06/02 06:34:27;;;;;;;3.60;2.50;;;17.00;48.80;;;;;;5030071;28;20029;-81
2021/06/02 06:36:56;;;;;;;4.38;2.50;;;17.00;48.20;;;;;;5029561;28;20056;-80
2021/06/02 06:39:31;;;;;;;3.60;2.50;;;17.00;46.90;;;;;;5031719;28;20383;-80
2021/06/02 06:41:59;;;;;;;2.72;2.53;;;17.20;47.50;;;;;;5029065;28;20029;-80
2021/06/02 06:44:26;;;;;;;5.55;2.47;;;17.30;47.50;;;;;;5031765;28;20033;-80
2021/06/02 06:46:56;;;;;;;3.75;2.30;;;17.40;47.10;;;;;;5029087;28;20111;-80
2021/06/02 06:49:25;;;;;;;3.03;2.40;;;17.30;47.20;;;;;;5027741;28;20033;-80
2021/06/02 06:51:52;;;;;;;3.92;2.40;;;17.30;46.70;;;;;;5030136;28;20033;-80
2021/06/02 06:54:20;;;;;;;5.22;2.17;;;17.40;45.20;;;;;;5030271;28;20033;-80
2021/06/02 06:56:47;;;;;;;3.10;2.38;;;17.60;44.50;;;;;;5031218;28;20032;-80
2021/06/02 06:59:17;;;;;;;13.38;3.10;;;17.70;44.20;;;;;;5030299;28;20104;-80
2021/06/02 07:01:43;;;;;;;4.40;2.30;;;17.80;43.20;;;;;;5030480;28;20033;-80
2021/06/02 07:04:09;;;;;;;4.05;2.15;;;18.00;43.50;;;;;;5030488;28;20600;-78
2021/06/02 07:06:38;;;;;;;1.75;1.65;;;18.20;43.10;;;;;;5031241;28;20033;-79
2021/06/02 07:09:07;;;;;;;4.05;2.20;;;18.10;41.70;;;;;;5030008;28;20025;-80
2021/06/02 07:11:40;;;;;;;4.57;1.67;;;18.10;42.60;;;;;;5030318;28;20475;-80
2021/06/02 07:14:06;;;;;;;;;;;18.10;42.00;;;;;;5031325;28;20076;-80
2021/06/02 07:16:35;;;;;;;2.65;2.03;;;18.20;41.40;;;;;;5029281;28;20363;-79
2021/06/02 07:19:02;;;;;;;2.92;1.75;;;18.40;41.50;;;;;;5029529;28;20017;-79
2021/06/02 07:21:29;;;;;;;7.90;2.10;;;18.50;41.20;;;;;;5030240;28;20462;-80
2021/06/02 07:23:56;;;;;;;3.28;1.85;;;18.40;39.70;;;;;;5030072;28;20032;-79
2021/06/02 07:26:22;;;;;;;2.08;1.88;;;18.30;39.10;;;;;;5024375;28;20080;-79
2021/06/02 07:28:48;;;;;;;2.67;2.47;;;18.40;39.70;;;;;;5028212;28;20037;-79
2021/06/02 07:31:14;;;;;;;7.85;2.42;;;18.50;40.20;;;;;;5029924;28;20034;-79
2021/06/02 07:33:40;;;;;;;3.95;2.03;;;18.50;39.70;;;;;;5030353;28;20026;-79
2021/06/02 07:36:08;;;;;;;4.32;1.70;;;18.50;39.30;;;;;;5030819;28;20038;-79
2021/06/02 07:38:34;;;;;;;3.80;1.80;;;18.40;39.00;;;;;;5030105;28;20018;-80
2021/06/02 07:41:00;;;;;;;2.55;1.70;;;18.40;38.20;;;;;;5030728;28;20035;-79
2021/06/02 07:43:26;;;;;;;2.63;1.55;;;18.60;38.30;;;;;;5029650;28;20487;-80
2021/06/02 07:45:52;;;;;;;2.42;1.90;;;18.70;37.70;;;;;;5028783;28;20038;-79
2021/06/02 07:48:17;;;;;;;3.30;1.77;;;18.80;37.10;;;;;;5029112;28;20039;-79
2021/06/02 07:50:43;;;;;;;3.28;1.75;;;18.90;38.00;;;;;;5027556;28;20489;-79
2021/06/02 07:53:09;;;;;;;3.38;1.63;;;19.10;38.40;;;;;;5030146;28;20502;-80
2021/06/02 07:55:35;;;;;;;2.70;1.70;;;18.90;37.90;;;;;;5026519;28;20056;-79
2021/06/02 07:58:01;;;;;;;5.18;2.25;;;18.70;38.40;;;;;;5028267;28;20044;-79
2021/06/02 08:00:27;;;;;;;5.50;1.98;;;18.30;38.50;;;;;;5029979;28;20043;-80
2021/06/02 08:02:53;;;;;;;1.90;1.80;;;18.20;39.30;;;;;;5028805;28;20053;-79
2021/06/02 08:05:19;;;;;;;3.22;2.60;;;18.30;39.60;;;;;;5031823;28;20041;-80
2021/06/02 08:07:46;;;;;;;4.03;2.15;;;18.30;38.70;;;;;;5029272;28;20026;-80
2021/06/02 08:10:13;;;;;;;5.55;2.95;;;18.00;39.50;;;;;;5029663;28;20048;-79
2021/06/02 08:12:39;;;;;;;4.75;1.73;;;18.20;39.50;;;;;;5031658;28;20495;-79
2021/06/02 08:15:07;;;;;;;4.20;1.98;;;18.00;39.20;;;;;;5027461;28;20025;-79
2021/06/02 08:17:34;;;;;;;4.38;1.80;;;17.80;39.80;;;;;;5030492;28;20036;-80
2021/06/02 08:20:00;;;;;;;3.72;1.90;;;17.80;41.00;;;;;;5032195;28;20129;-79
2021/06/02 08:22:25;;;;;;;2.30;1.65;;;17.60;38.90;;;;;;5033158;28;20104;-79
2021/06/02 08:24:51;;;;;;;3.47;1.67;;;17.50;38.80;;;;;;5030404;28;20045;-80
2021/06/02 08:27:17;;;;;;;2.70;1.92;;;17.60;38.10;;;;;;5027308;28;20032;-79
2021/06/02 08:29:42;;;;;;;3.38;1.95;;;17.70;38.80;;;;;;5031998;28;20483;-79
2021/06/02 08:32:09;;;;;;;2.33;2.13;;;18.20;39.10;;;;;;5031647;28;20049;-80
2021/06/02 08:34:36;;;;;;;4.60;2.25;;;18.40;38.40;;;;;;5033447;28;20039;-80
2021/06/02 08:37:02;;;;;;;2.97;1.73;;;18.50;37.70;;;;;;5032177;28;20446;-79
2021/06/02 08:39:28;;;;;;;4.00;1.77;;;18.50;37.40;;;;;;5032567;28;20020;-80
2021/06/02 08:41:54;;;;;;;1.98;1.67;;;18.60;36.80;;;;;;5031720;28;20462;-79
2021/06/02 08:44:22;;;;;;;1.75;1.63;;;18.70;37.20;;;;;;5034493;28;20030;-80
2021/06/02 08:46:48;;;;;;;2.17;1.60;;;18.60;37.90;;;;;;5031592;28;20040;-80
2021/06/02 08:49:15;;;;;;;3.47;2.03;;;18.30;37.30;;;;;;5034281;28;20045;-80
2021/06/02 08:51:41;;;;;;;3.70;2.13;;;18.70;37.80;;;;;;5033431;28;20095;-80
2021/06/02 08:54:07;;;;;;;3.83;2.30;;;18.80;38.50;;;;;;5032930;28;20439;-80
2021/06/02 08:56:41;;;;;;;3.13;1.83;;;18.70;38.50;;;;;;5032583;28;20033;-81
2021/06/02 08:59:08;;;;;;;4.57;2.22;;;18.70;39.10;;;;;;5034094;28;20071;-80
2021/06/02 09:01:34;;;;;;;2.75;1.95;;;18.50;38.90;;;;;;5015721;28;20122;-80
2021/06/02 09:04:07;;;;;;;4.10;1.60;;;18.50;38.90;;;;;;5031743;28;20036;-80
2021/06/02 09:06:35;;;;;;;2.67;1.75;;;18.40;39.20;;;;;;5032413;28;20159;-80
2021/06/02 09:09:04;;;;;;;2.05;1.58;;;18.40;38.80;;;;;;5031907;28;20039;-80
2021/06/02 09:11:36;;;;;;;3.22;1.80;;;18.40;39.10;;;;;;5033846;28;20124;-81
2021/06/02 09:14:01;;;;;;;2.47;1.70;;;18.50;39.50;;;;;;5030973;28;20017;-80
2021/06/02 09:16:30;;;;;;;2.72;2.30;;;18.30;39.50;;;;;;5031507;28;20040;-81
2021/06/02 09:19:04;;;;;;;1.95;1.85;;;18.50;39.90;;;;;;5031191;28;20017;-80
2021/06/02 09:21:31;;;;;;;2.65;1.90;;;18.80;39.30;;;;;;5029163;28;20486;-81
2021/06/02 09:23:58;;;;;;;2.90;2.17;;;19.10;38.90;;;;;;5030903;28;20022;-81
2021/06/02 09:26:30;;;;;;;3.58;2.50;;;19.30;38.60;;;;;;5027495;28;20033;-81
2021/06/02 09:29:11;;;;;;;3.83;2.78;;;19.00;38.60;;;;;;5031855;28;20041;-81
2021/06/02 09:31:38;;;;;;;5.00;2.45;;;19.00;38.50;;;;;;5031867;28;20425;-81
2021/06/02 09:34:14;;;;;;;3.15;2.10;;;19.10;38.80;;;;;;5031432;28;20961;-81
2021/06/02 09:36:42;;;;;;;2.35;1.80;;;18.90;38.70;;;;;;5031900;28;20037;-81
2021/06/02 09:39:11;;;;;;;4.53;2.50;;;18.70;39.00;;;;;;5032060;28;20028;-81
2021/06/02 09:41:51;;;;;;;4.20;2.67;;;18.60;39.40;;;;;;5032122;28;20026;-81
2021/06/02 09:44:22;;;;;;;2.13;1.90;;;18.30;38.60;;;;;;5031567;28;20048;-81
2021/06/02 09:47:00;;;;;;;3.22;2.08;;;18.10;39.20;;;;;;5030873;28;20034;-80
2021/06/02 09:49:26;;;;;;;2.92;2.58;;;18.20;38.70;;;;;;5031822;28;20082;-81
2021/06/02 09:51:53;;;;;;;2.55;2.35;;;18.80;39.60;;;;;;5031111;28;20033;-80
2021/06/02 09:54:23;;;;;;;2.65;1.85;;;19.20;39.60;;;;;;5033202;28;20024;-80
2021/06/02 09:56:50;;;;;;;3.13;1.85;;;19.00;39.10;;;;;;5030274;28;20038;-80
2021/06/02 09:59:16;;;;;;;5.53;2.15;;;18.80;38.60;;;;;;5031749;28;20053;-81
2021/06/02 10:01:56;;;;;;;3.17;1.80;;;18.60;38.10;;;;;;5029446;28;20466;-81
2021/06/02 10:04:32;;;;;;;2.95;2.15;;;18.60;37.20;;;;;;5030499;28;20043;-80
2021/06/02 10:06:58;;;;;;;3.70;1.95;;;19.10;37.90;;;;;;5029161;28;20028;-82
2021/06/02 10:09:31;;;;;;;3.25;1.90;;;19.40;38.50;;;;;;5030577;28;20034;-81
2021/06/02 10:12:01;;;;;;;;;;;19.70;38.20;;;;;;5029215;28;20034;-80
2021/06/02 10:14:27;;;;;;;3.58;2.28;;;19.90;37.10;;;;;;5030740;28;19999;-78
2021/06/02 10:16:52;;;;;;;1.95;1.75;;;20.00;36.70;;;;;;5030057;28;20072;-78
2021/06/02 10:19:39;;;;;;;3.67;1.63;;;19.50;36.40;;;;;;5030936;28;20045;-78
2021/06/02 10:22:21;;;;;;;3.15;1.77;;;19.40;36.80;;;;;;5031116;28;20111;-81
2021/06/02 10:24:48;;;;;;;3.60;1.80;;;18.90;36.70;;;;;;5031856;28;20013;-80
2021/06/02 10:27:14;;;;;;;2.60;1.80;;;19.30;38.20;;;;;;5026853;28;20034;-77
2021/06/02 10:29:41;;;;;;;2.72;2.05;;;19.70;39.10;;;;;;5030161;28;20041;-79
2021/06/02 10:32:07;;;;;;;3.28;1.60;;;19.80;38.00;;;;;;5030396;28;20471;-78
2021/06/02 10:34:33;;;;;;;2.25;2.08;;;19.90;37.50;;;;;;5023394;28;20056;-79
2021/06/02 10:36:59;;;;;;;5.35;2.13;;;20.00;36.40;;;;;;5027349;28;20029;-79
2021/06/02 10:39:26;;;;;;;2.33;1.85;;;19.90;36.70;;;;;;5027513;28;20100;-79
2021/06/02 10:41:58;;;;;;;1.60;1.50;;;19.70;36.90;;;;;;5026588;28;20100;-79
2021/06/02 10:44:36;;;;;;;2.65;1.92;;;20.00;36.50;;;;;;5030421;28;20053;-79
2021/06/02 10:47:02;;;;;;;3.13;1.90;;;20.40;37.90;;;;;;5019948;28;20046;-77
2021/06/02 10:49:34;;;;;;;5.05;1.73;;;20.10;37.40;;;;;;5029080;28;20037;-77
2021/06/02 10:52:00;;;;;;;28.45;4.80;;;20.10;38.30;;;;;;5029404;28;20061;-77
2021/06/02 10:54:40;;;;;;;1.77;1.67;;;19.90;38.00;;;;;;5029837;28;20025;-76
2021/06/02 10:57:07;;;;;;;2.08;1.92;;;19.70;38.50;;;;;;5030112;28;20530;-76
2021/06/02 10:59:38;;;;;;;5.30;2.10;;;19.30;38.60;;;;;;5029509;28;20031;-76
2021/06/02 11:02:04;;;;;;;2.63;1.80;;;19.30;39.00;;;;;;5027238;28;20043;-76
2021/06/02 11:04:30;;;;;;;3.00;1.98;;;19.00;38.70;;;;;;5027086;28;20033;-76
2021/06/02 11:07:14;;;;;;;7.13;2.08;;;19.00;38.50;;;;;;5029252;28;20022;-76
2021/06/02 11:10:02;;;;;;;3.35;1.92;;;19.00;39.00;;;;;;5025493;28;20038;-77
2021/06/02 11:12:46;;;;;;;10.15;2.80;;;18.80;39.90;;;;;;5026619;28;20025;-76
2021/06/02 11:15:34;;;;;;;3.45;2.10;;;18.60;40.30;;;;;;5028455;28;20048;-76
2021/06/02 11:18:08;;;;;;;3.13;2.35;;;18.60;40.60;;;;;;5029611;28;20033;-76
2021/06/02 11:20:49;;;;;;;3.17;2.03;;;18.60;41.50;;;;;;5031125;28;20542;-76
2021/06/02 11:23:21;;;;;;;4.22;2.53;;;19.10;41.40;;;;;;5029823;28;20053;-77
2021/06/02 11:25:48;;;;;;;5.57;2.40;;;19.10;40.10;;;;;;5032028;28;20053;-76
2021/06/02 11:28:36;;;;;;;2.83;2.50;;;19.30;40.40;;;;;;5029674;28;20028;-77
2021/06/02 11:31:25;;;;;;;4.55;2.10;;;19.30;41.20;;;;;;5031447;28;20467;-76
2021/06/02 11:33:52;;;;;;;3.50;2.50;;;19.30;41.10;;;;;;5030927;28;20478;-77
2021/06/02 11:36:18;;;;;;;3.85;2.28;;;19.00;40.90;;;;;;5032813;28;20025;-76
2021/06/02 11:38:44;;;;;;;3.95;2.53;;;19.20;40.40;;;;;;5017069;28;20038;-76
2021/06/02 11:41:14;;;;;;;3.97;2.17;;;19.50;38.90;;;;;;5011676;28;20052;-76
2021/06/02 11:43:40;;;;;;;2.50;2.17;;;19.80;38.80;;;;;;5012887;28;20080;-77
2021/06/02 11:46:06;;;;;;;5.18;2.50;;;20.30;38.80;;;;;;5021159;28;20021;-76
2021/06/02 11:48:34;;;;;;;5.15;2.22;;;20.50;39.40;;;;;;5031105;28;20071;-76
2021/06/02 11:51:04;;;;;;;2.30;2.10;;;20.10;38.90;;;;;;5030798;28;20067;-76
2021/06/02 11:53:42;;;;;;;2.70;2.40;;;19.90;39.30;;;;;;5031223;28;20025;-76
2021/06/02 11:56:08;;;;;;;2.55;2.35;;;20.30;40.20;;;;;;5031320;28;20021;-77
2021/06/02 11:58:34;;;;;;;3.60;2.25;;;20.40;38.40;;;;;;5032328;28;20525;-76
2021/06/02 12:01:00;;;;;;;2.20;2.10;;;20.50;38.70;;;;;;5032151;28;20022;-77
2021/06/02 12:03:28;;;;;;;2.70;2.20;;;20.40;37.90;;;;;;5029929;28;20029;-76
2021/06/02 12:05:54;;;;;;;4.28;2.38;;;20.60;37.70;;;;;;5031686;28;20079;-75
2021/06/02 12:08:20;;;;;;;2.70;2.20;;;20.80;37.40;;;;;;5031920;28;20467;-75
2021/06/02 12:10:47;;;;;;;4.15;2.35;;;20.70;36.50;;;;;;5031076;28;20517;-75
2021/06/02 12:13:19;;;;;;;4.75;2.38;;;20.60;38.60;;;;;;5032352;28;20056;-75
2021/06/02 12:15:52;;;;;;;2.40;2.20;;;20.20;39.60;;;;;;5030931;28;20071;-75
2021/06/02 12:18:31;;;;;;;3.75;2.30;;;20.20;40.20;;;;;;5028970;28;20026;-75
2021/06/02 12:21:11;;;;;;;3.58;2.33;;;20.20;40.60;;;;;;5026690;28;20125;-75
2021/06/02 12:23:51;;;;;;;2.78;2.28;;;20.10;40.10;;;;;;5027470;28;20022;-75
2021/06/02 12:26:34;;;;;;;2.58;2.00;;;20.00;39.50;;;;;;5030110;28;20519;-75
2021/06/02 12:29:01;;;;;;;;;;;19.80;39.60;;;;;;5028959;28;20037;-75
2021/06/02 12:31:38;;;;;;;3.63;2.22;;;19.90;40.30;;;;;;5030575;28;19905;-76
2021/06/02 12:34:07;;;;;;;4.25;2.15;;;19.70;41.30;;;;;;5028481;28;20028;-76
2021/06/02 12:36:33;;;;;;;2.55;1.80;;;19.80;40.50;;;;;;5030146;28;20022;-75
2021/06/02 12:39:09;;;;;;;2.40;2.10;;;19.80;40.30;;;;;;5030759;28;20034;-75
2021/06/02 12:41:35;;;;;;;1.95;1.85;;;20.00;39.00;;;;;;5035853;28;20029;-75
2021/06/02 12:44:03;;;;;;;3.45;1.83;;;20.00;38.40;;;;;;5034673;28;20363;-75
2021/06/02 12:46:30;;;;;;;3.10;1.95;;;20.30;38.20;;;;;;5035304;28;20057;-75
2021/06/02 12:48:56;;;;;;;3.88;1.60;;;20.30;37.60;;;;;;5033497;28;20475;-75
2021/06/02 12:51:24;;;;;;;5.07;1.70;;;20.60;37.30;;;;;;5035559;28;20021;-74
2021/06/02 12:53:50;;;;;;;2.60;1.70;;;20.70;36.90;;;;;;5035334;28;20029;-74
2021/06/02 12:56:17;;;;;;;5.43;2.00;;;21.00;37.90;;;;;;5035685;28;20035;-75
2021/06/02 12:58:49;;;;;;;4.28;2.38;;;21.00;37.40;;;;;;5035275;28;20018;-75
2021/06/02 13:01:16;;;;;;;2.40;1.88;;;21.10;37.10;;;;;;5034424;28;20026;-75
2021/06/02 13:03:50;;;;;;;2.60;2.13;;;21.40;36.90;;;;;;5032679;28;20464;-75
2021/06/02 13:06:17;;;;;;;4.47;2.00;;;21.50;36.00;;;;;;5031397;28;20018;-75
2021/06/02 13:08:44;;;;;;;3.22;2.80;;;21.30;36.60;;;;;;5031421;28;20048;-75
2021/06/02 13:11:11;;;;;;;3.58;1.70;;;21.00;35.90;;;;;;5031520;28;20337;-75
2021/06/02 13:13:38;;;;;;;2.60;1.67;;;20.70;36.40;;;;;;5033285;28;20024;-75
2021/06/02 13:16:06;;;;;;;2.33;1.98;;;20.70;37.20;;;;;;5034637;28;20037;-76
2021/06/02 13:18:33;;;;;;;1.77;1.67;;;20.90;37.30;;;;;;5032302;28;20014;-74
2021/06/02 13:21:17;;;;;;;2.28;1.90;;;21.20;37.20;;;;;;5033253;28;20013;-75
2021/06/02 13:23:43;;;;;;;2.75;1.58;;;21.10;37.30;;;;;;5029342;28;20017;-75
2021/06/02 13:26:15;;;;;;;3.05;1.75;;;20.90;37.50;;;;;;5034113;28;20503;-75